sensor_id;sensor_type;location;lat;lon;timestamp;P1;durP1;ratioP1;P2;durP2;ratioP2
37791;SDS011;29527;55.766;37.570;2023-04-06T00:01:39;8.65;;;5.53;;
37791;SDS011;29527;55.766;37.570;2023-04-06T00:04:04;9.95;;;5.90;;
37791;SDS011;29527;55.766;37.570;2023-04-06T00:06:31;6.95;;;5.30;;
37791;SDS011;29527;55.766;37.570;2023-04-06T00:08:57;7.78;;;5.30;;
37791;SDS011;29527;55.766;37.570;2023-04-06T00:11:23;9.68;;;5.68;;
37791;SDS011;29527;55.766;37.570;2023-04-06T00:13:48;10.15;;;5.65;;
37791;SDS011;29527;55.766;37.570;2023-04-06T00:16:14;7.28;;;5.88;;
37791;SDS011;29527;55.766;37.570;2023-04-06T00:18:40;8.18;;;5.50;;
37791;SDS011;29527;55.766;37.570;2023-04-06T00:21:06;8.13;;;5.45;;
37791;SDS011;29527;55.766;37.570;2023-04-06T00:23:31;8.68;;;6.15;;
37791;SDS011;29527;55.766;37.570;2023-04-06T00:25:57;11.05;;;5.82;;
37791;SDS011;29527;55.766;37.570;2023-04-06T00:28:22;7.72;;;6.05;;
37791;SDS011;29527;55.766;37.570;2023-04-06T00:30:53;9.90;;;6.13;;
37791;SDS011;29527;55.766;37.570;2023-04-06T00:33:20;8.25;;;5.97;;
37791;SDS011;29527;55.766;37.570;2023-04-06T00:35:46;8.63;;;5.90;;
37791;SDS011;29527;55.766;37.570;2023-04-06T00:38:12;6.78;;;4.55;;
37791;SDS011;29527;55.766;37.570;2023-04-06T00:40:37;10.27;;;6.25;;
37791;SDS011;29527;55.766;37.570;2023-04-06T00:43:05;10.38;;;5.93;;
37791;SDS011;29527;55.766;37.570;2023-04-06T00:45:31;9.60;;;6.28;;
37791;SDS011;29527;55.766;37.570;2023-04-06T00:47:57;8.68;;;6.57;;
37791;SDS011;29527;55.766;37.570;2023-04-06T00:50:22;7.82;;;6.07;;
37791;SDS011;29527;55.766;37.570;2023-04-06T00:52:48;12.10;;;6.85;;
37791;SDS011;29527;55.766;37.570;2023-04-06T00:55:13;11.20;;;6.15;;
37791;SDS011;29527;55.766;37.570;2023-04-06T00:57:39;11.15;;;6.78;;
37791;SDS011;29527;55.766;37.570;2023-04-06T01:00:05;9.88;;;6.68;;
37791;SDS011;29527;55.766;37.570;2023-04-06T01:02:31;9.65;;;6.78;;
37791;SDS011;29527;55.766;37.570;2023-04-06T01:04:57;11.00;;;7.38;;
37791;SDS011;29527;55.766;37.570;2023-04-06T01:07:22;13.25;;;7.07;;
37791;SDS011;29527;55.766;37.570;2023-04-06T01:09:47;12.07;;;7.30;;
37791;SDS011;29527;55.766;37.570;2023-04-06T01:12:13;10.82;;;6.65;;
37791;SDS011;29527;55.766;37.570;2023-04-06T01:14:38;11.75;;;6.82;;
37791;SDS011;29527;55.766;37.570;2023-04-06T01:17:04;8.93;;;7.18;;
37791;SDS011;29527;55.766;37.570;2023-04-06T01:19:29;9.52;;;7.20;;
37791;SDS011;29527;55.766;37.570;2023-04-06T01:21:55;9.43;;;7.13;;
37791;SDS011;29527;55.766;37.570;2023-04-06T01:24:21;10.18;;;7.50;;
37791;SDS011;29527;55.766;37.570;2023-04-06T01:26:46;13.73;;;7.57;;
37791;SDS011;29527;55.766;37.570;2023-04-06T01:29:12;12.23;;;7.53;;
37791;SDS011;29527;55.766;37.570;2023-04-06T01:31:38;11.57;;;6.68;;
37791;SDS011;29527;55.766;37.570;2023-04-06T01:34:04;9.95;;;7.15;;
37791;SDS011;29527;55.766;37.570;2023-04-06T01:36:30;9.15;;;7.15;;
37791;SDS011;29527;55.766;37.570;2023-04-06T01:38:56;10.20;;;7.30;;
37791;SDS011;29527;55.766;37.570;2023-04-06T01:41:21;9.18;;;6.43;;
37791;SDS011;29527;55.766;37.570;2023-04-06T01:43:47;10.43;;;7.50;;
37791;SDS011;29527;55.766;37.570;2023-04-06T01:46:13;10.80;;;7.10;;
37791;SDS011;29527;55.766;37.570;2023-04-06T01:48:39;12.98;;;7.35;;
37791;SDS011;29527;55.766;37.570;2023-04-06T01:51:05;10.30;;;7.43;;
37791;SDS011;29527;55.766;37.570;2023-04-06T01:53:30;11.63;;;6.97;;
37791;SDS011;29527;55.766;37.570;2023-04-06T01:55:56;13.35;;;7.20;;
37791;SDS011;29527;55.766;37.570;2023-04-06T01:58:21;12.30;;;7.70;;
37791;SDS011;29527;55.766;37.570;2023-04-06T02:00:47;9.18;;;7.38;;
37791;SDS011;29527;55.766;37.570;2023-04-06T02:03:12;10.88;;;7.43;;
37791;SDS011;29527;55.766;37.570;2023-04-06T02:05:39;10.48;;;6.60;;
37791;SDS011;29527;55.766;37.570;2023-04-06T02:08:05;11.93;;;7.45;;
37791;SDS011;29527;55.766;37.570;2023-04-06T02:10:30;12.63;;;7.28;;
37791;SDS011;29527;55.766;37.570;2023-04-06T02:12:57;10.75;;;7.45;;
37791;SDS011;29527;55.766;37.570;2023-04-06T02:15:23;10.07;;;6.43;;
37791;SDS011;29527;55.766;37.570;2023-04-06T02:17:48;11.32;;;7.38;;
37791;SDS011;29527;55.766;37.570;2023-04-06T02:20:13;13.27;;;7.80;;
37791;SDS011;29527;55.766;37.570;2023-04-06T02:22:39;10.32;;;7.25;;
37791;SDS011;29527;55.766;37.570;2023-04-06T02:25:05;11.27;;;7.32;;
37791;SDS011;29527;55.766;37.570;2023-04-06T02:27:30;12.23;;;6.55;;
37791;SDS011;29527;55.766;37.570;2023-04-06T02:29:56;12.95;;;6.72;;
37791;SDS011;29527;55.766;37.570;2023-04-06T02:32:21;12.25;;;7.82;;
37791;SDS011;29527;55.766;37.570;2023-04-06T02:34:47;8.82;;;6.60;;
37791;SDS011;29527;55.766;37.570;2023-04-06T02:37:12;11.65;;;6.95;;
37791;SDS011;29527;55.766;37.570;2023-04-06T02:39:38;12.18;;;7.22;;
37791;SDS011;29527;55.766;37.570;2023-04-06T02:42:03;8.57;;;6.90;;
37791;SDS011;29527;55.766;37.570;2023-04-06T02:44:29;10.40;;;7.22;;
37791;SDS011;29527;55.766;37.570;2023-04-06T02:46:54;10.55;;;7.32;;
37791;SDS011;29527;55.766;37.570;2023-04-06T02:49:19;10.30;;;6.50;;
37791;SDS011;29527;55.766;37.570;2023-04-06T02:51:45;14.65;;;6.72;;
37791;SDS011;29527;55.766;37.570;2023-04-06T02:54:10;11.48;;;7.15;;
37791;SDS011;29527;55.766;37.570;2023-04-06T02:56:36;10.80;;;6.47;;
37791;SDS011;29527;55.766;37.570;2023-04-06T02:59:01;9.13;;;7.05;;
37791;SDS011;29527;55.766;37.570;2023-04-06T03:01:27;11.70;;;6.43;;
37791;SDS011;29527;55.766;37.570;2023-04-06T03:03:52;9.52;;;6.53;;
37791;SDS011;29527;55.766;37.570;2023-04-06T03:06:18;9.23;;;6.25;;
37791;SDS011;29527;55.766;37.570;2023-04-06T03:08:43;13.10;;;6.55;;
37791;SDS011;29527;55.766;37.570;2023-04-06T03:11:08;7.68;;;6.10;;
37791;SDS011;29527;55.766;37.570;2023-04-06T03:13:35;9.88;;;6.32;;
37791;SDS011;29527;55.766;37.570;2023-04-06T03:16:03;5.60;;;4.60;;
37791;SDS011;29527;55.766;37.570;2023-04-06T03:18:29;6.78;;;4.80;;
37791;SDS011;29527;55.766;37.570;2023-04-06T03:20:55;9.43;;;6.10;;
37791;SDS011;29527;55.766;37.570;2023-04-06T03:23:20;13.30;;;6.72;;
37791;SDS011;29527;55.766;37.570;2023-04-06T03:25:46;10.25;;;5.93;;
37791;SDS011;29527;55.766;37.570;2023-04-06T03:28:12;7.22;;;5.68;;
37791;SDS011;29527;55.766;37.570;2023-04-06T03:30:37;16.52;;;5.90;;
37791;SDS011;29527;55.766;37.570;2023-04-06T03:33:02;7.50;;;5.88;;
37791;SDS011;29527;55.766;37.570;2023-04-06T03:35:28;9.68;;;5.90;;
37791;SDS011;29527;55.766;37.570;2023-04-06T03:37:53;10.77;;;6.07;;
37791;SDS011;29527;55.766;37.570;2023-04-06T03:40:19;8.68;;;4.55;;
37791;SDS011;29527;55.766;37.570;2023-04-06T03:42:44;8.88;;;4.22;;
37791;SDS011;29527;55.766;37.570;2023-04-06T03:45:10;7.95;;;5.57;;
37791;SDS011;29527;55.766;37.570;2023-04-06T03:47:35;8.20;;;5.30;;
37791;SDS011;29527;55.766;37.570;2023-04-06T03:50:01;11.70;;;5.88;;
37791;SDS011;29527;55.766;37.570;2023-04-06T03:52:29;7.30;;;4.25;;
37791;SDS011;29527;55.766;37.570;2023-04-06T03:54:54;7.43;;;4.90;;
37791;SDS011;29527;55.766;37.570;2023-04-06T03:57:19;5.82;;;4.47;;
37791;SDS011;29527;55.766;37.570;2023-04-06T03:59:45;8.00;;;4.93;;
37791;SDS011;29527;55.766;37.570;2023-04-06T04:02:10;8.93;;;5.30;;
37791;SDS011;29527;55.766;37.570;2023-04-06T04:04:36;6.28;;;4.82;;
37791;SDS011;29527;55.766;37.570;2023-04-06T04:07:01;9.50;;;5.07;;
37791;SDS011;29527;55.766;37.570;2023-04-06T04:09:27;7.72;;;4.70;;
37791;SDS011;29527;55.766;37.570;2023-04-06T04:11:52;8.50;;;4.72;;
37791;SDS011;29527;55.766;37.570;2023-04-06T04:14:17;8.02;;;4.82;;
37791;SDS011;29527;55.766;37.570;2023-04-06T04:16:43;7.97;;;4.55;;
37791;SDS011;29527;55.766;37.570;2023-04-06T04:19:08;11.00;;;4.95;;
37791;SDS011;29527;55.766;37.570;2023-04-06T04:21:41;8.02;;;4.47;;
37791;SDS011;29527;55.766;37.570;2023-04-06T04:24:07;8.88;;;4.72;;
37791;SDS011;29527;55.766;37.570;2023-04-06T04:26:33;9.05;;;4.40;;
37791;SDS011;29527;55.766;37.570;2023-04-06T04:28:58;9.13;;;4.70;;
37791;SDS011;29527;55.766;37.570;2023-04-06T04:31:24;8.32;;;4.35;;
37791;SDS011;29527;55.766;37.570;2023-04-06T04:33:49;9.18;;;4.30;;
37791;SDS011;29527;55.766;37.570;2023-04-06T04:36:15;9.57;;;3.65;;
37791;SDS011;29527;55.766;37.570;2023-04-06T04:38:40;5.45;;;4.30;;
37791;SDS011;29527;55.766;37.570;2023-04-06T04:41:06;5.40;;;4.90;;
37791;SDS011;29527;55.766;37.570;2023-04-06T04:43:31;6.20;;;4.72;;
37791;SDS011;29527;55.766;37.570;2023-04-06T04:45:57;8.32;;;4.50;;
37791;SDS011;29527;55.766;37.570;2023-04-06T04:48:24;6.63;;;4.63;;
37791;SDS011;29527;55.766;37.570;2023-04-06T04:50:49;8.02;;;4.68;;
37791;SDS011;29527;55.766;37.570;2023-04-06T04:53:15;9.57;;;4.75;;
37791;SDS011;29527;55.766;37.570;2023-04-06T04:55:40;11.27;;;4.75;;
37791;SDS011;29527;55.766;37.570;2023-04-06T04:58:06;6.65;;;4.47;;
37791;SDS011;29527;55.766;37.570;2023-04-06T05:00:31;5.78;;;4.43;;
37791;SDS011;29527;55.766;37.570;2023-04-06T05:02:57;5.72;;;4.05;;
37791;SDS011;29527;55.766;37.570;2023-04-06T05:05:22;8.63;;;4.35;;
37791;SDS011;29527;55.766;37.570;2023-04-06T05:07:47;7.25;;;4.57;;
37791;SDS011;29527;55.766;37.570;2023-04-06T05:10:13;9.85;;;4.25;;
37791;SDS011;29527;55.766;37.570;2023-04-06T05:12:38;10.45;;;4.45;;
37791;SDS011;29527;55.766;37.570;2023-04-06T05:15:05;10.45;;;4.40;;
37791;SDS011;29527;55.766;37.570;2023-04-06T05:17:31;8.45;;;3.75;;
37791;SDS011;29527;55.766;37.570;2023-04-06T05:19:56;9.10;;;4.43;;
37791;SDS011;29527;55.766;37.570;2023-04-06T05:22:21;14.50;;;4.40;;
37791;SDS011;29527;55.766;37.570;2023-04-06T05:24:47;5.93;;;4.00;;
37791;SDS011;29527;55.766;37.570;2023-04-06T05:27:12;8.63;;;4.40;;
37791;SDS011;29527;55.766;37.570;2023-04-06T05:29:38;6.32;;;4.38;;
37791;SDS011;29527;55.766;37.570;2023-04-06T05:32:03;6.75;;;4.20;;
37791;SDS011;29527;55.766;37.570;2023-04-06T05:34:29;7.82;;;3.97;;
37791;SDS011;29527;55.766;37.570;2023-04-06T05:36:54;6.40;;;3.75;;
37791;SDS011;29527;55.766;37.570;2023-04-06T05:39:20;10.07;;;4.07;;
37791;SDS011;29527;55.766;37.570;2023-04-06T05:41:45;8.57;;;4.15;;
37791;SDS011;29527;55.766;37.570;2023-04-06T05:44:11;6.18;;;3.90;;
37791;SDS011;29527;55.766;37.570;2023-04-06T05:46:36;8.55;;;3.42;;
37791;SDS011;29527;55.766;37.570;2023-04-06T05:49:02;8.95;;;4.00;;
37791;SDS011;29527;55.766;37.570;2023-04-06T05:51:27;7.75;;;3.95;;
37791;SDS011;29527;55.766;37.570;2023-04-06T05:53:53;9.77;;;3.95;;
37791;SDS011;29527;55.766;37.570;2023-04-06T05:56:18;11.02;;;4.43;;
37791;SDS011;29527;55.766;37.570;2023-04-06T05:58:44;3.92;;;3.28;;
37791;SDS011;29527;55.766;37.570;2023-04-06T06:01:09;4.97;;;3.90;;
37791;SDS011;29527;55.766;37.570;2023-04-06T06:03:35;8.10;;;3.88;;
37791;SDS011;29527;55.766;37.570;2023-04-06T06:06:01;5.72;;;3.95;;
37791;SDS011;29527;55.766;37.570;2023-04-06T06:08:30;12.80;;;3.88;;
37791;SDS011;29527;55.766;37.570;2023-04-06T06:10:55;12.52;;;3.83;;
37791;SDS011;29527;55.766;37.570;2023-04-06T06:13:22;9.27;;;3.88;;
37791;SDS011;29527;55.766;37.570;2023-04-06T06:15:48;13.40;;;3.95;;
37791;SDS011;29527;55.766;37.570;2023-04-06T06:18:13;10.60;;;4.18;;
37791;SDS011;29527;55.766;37.570;2023-04-06T06:20:39;8.30;;;4.30;;
37791;SDS011;29527;55.766;37.570;2023-04-06T06:23:05;6.93;;;3.80;;
37791;SDS011;29527;55.766;37.570;2023-04-06T06:25:30;7.93;;;4.45;;
37791;SDS011;29527;55.766;37.570;2023-04-06T06:27:56;9.98;;;4.30;;
37791;SDS011;29527;55.766;37.570;2023-04-06T06:30:21;10.68;;;4.65;;
37791;SDS011;29527;55.766;37.570;2023-04-06T06:32:47;8.52;;;3.83;;
37791;SDS011;29527;55.766;37.570;2023-04-06T06:35:13;6.93;;;3.75;;
37791;SDS011;29527;55.766;37.570;2023-04-06T06:37:38;13.88;;;4.60;;
37791;SDS011;29527;55.766;37.570;2023-04-06T06:40:04;13.23;;;4.50;;
37791;SDS011;29527;55.766;37.570;2023-04-06T06:42:30;12.65;;;4.47;;
37791;SDS011;29527;55.766;37.570;2023-04-06T06:44:56;10.52;;;4.38;;
37791;SDS011;29527;55.766;37.570;2023-04-06T06:47:22;14.85;;;5.15;;
37791;SDS011;29527;55.766;37.570;2023-04-06T06:49:48;15.32;;;5.22;;
37791;SDS011;29527;55.766;37.570;2023-04-06T06:52:13;9.32;;;4.95;;
37791;SDS011;29527;55.766;37.570;2023-04-06T06:54:39;12.05;;;5.13;;
37791;SDS011;29527;55.766;37.570;2023-04-06T06:57:05;14.55;;;4.53;;
37791;SDS011;29527;55.766;37.570;2023-04-06T06:59:30;12.68;;;5.10;;
37791;SDS011;29527;55.766;37.570;2023-04-06T07:01:56;14.57;;;4.80;;
37791;SDS011;29527;55.766;37.570;2023-04-06T07:04:21;15.02;;;4.65;;
37791;SDS011;29527;55.766;37.570;2023-04-06T07:06:47;16.20;;;4.70;;
37791;SDS011;29527;55.766;37.570;2023-04-06T07:09:12;13.05;;;4.93;;
37791;SDS011;29527;55.766;37.570;2023-04-06T07:11:37;15.30;;;5.38;;
37791;SDS011;29527;55.766;37.570;2023-04-06T07:14:04;12.38;;;4.90;;
37791;SDS011;29527;55.766;37.570;2023-04-06T07:16:29;12.85;;;5.10;;
37791;SDS011;29527;55.766;37.570;2023-04-06T07:18:55;13.40;;;5.00;;
37791;SDS011;29527;55.766;37.570;2023-04-06T07:21:21;8.63;;;4.72;;
37791;SDS011;29527;55.766;37.570;2023-04-06T07:23:46;16.92;;;4.97;;
37791;SDS011;29527;55.766;37.570;2023-04-06T07:26:13;18.40;;;4.82;;
37791;SDS011;29527;55.766;37.570;2023-04-06T07:28:38;14.13;;;4.70;;
37791;SDS011;29527;55.766;37.570;2023-04-06T07:31:04;9.25;;;4.70;;
37791;SDS011;29527;55.766;37.570;2023-04-06T07:33:30;12.32;;;4.32;;
37791;SDS011;29527;55.766;37.570;2023-04-06T07:35:56;8.70;;;4.28;;
37791;SDS011;29527;55.766;37.570;2023-04-06T07:38:22;12.20;;;4.53;;
37791;SDS011;29527;55.766;37.570;2023-04-06T07:40:47;12.98;;;4.10;;
37791;SDS011;29527;55.766;37.570;2023-04-06T07:43:13;12.27;;;4.00;;
37791;SDS011;29527;55.766;37.570;2023-04-06T07:45:38;11.48;;;4.40;;
37791;SDS011;29527;55.766;37.570;2023-04-06T07:48:04;10.98;;;3.78;;
37791;SDS011;29527;55.766;37.570;2023-04-06T07:50:29;13.55;;;4.03;;
37791;SDS011;29527;55.766;37.570;2023-04-06T07:52:55;16.27;;;4.00;;
37791;SDS011;29527;55.766;37.570;2023-04-06T07:55:20;7.60;;;3.90;;
37791;SDS011;29527;55.766;37.570;2023-04-06T07:57:46;6.75;;;3.45;;
37791;SDS011;29527;55.766;37.570;2023-04-06T08:00:12;9.70;;;3.88;;
37791;SDS011;29527;55.766;37.570;2023-04-06T08:02:38;16.23;;;3.50;;
37791;SDS011;29527;55.766;37.570;2023-04-06T08:05:03;11.85;;;4.10;;
37791;SDS011;29527;55.766;37.570;2023-04-06T08:07:29;12.23;;;3.70;;
37791;SDS011;29527;55.766;37.570;2023-04-06T08:09:55;5.45;;;3.78;;
37791;SDS011;29527;55.766;37.570;2023-04-06T08:12:20;10.02;;;3.58;;
37791;SDS011;29527;55.766;37.570;2023-04-06T08:14:45;10.88;;;3.50;;
37791;SDS011;29527;55.766;37.570;2023-04-06T08:17:11;9.68;;;2.97;;
37791;SDS011;29527;55.766;37.570;2023-04-06T08:19:36;9.80;;;3.15;;
37791;SDS011;29527;55.766;37.570;2023-04-06T08:22:02;10.60;;;3.47;;
37791;SDS011;29527;55.766;37.570;2023-04-06T08:24:27;6.72;;;2.67;;
37791;SDS011;29527;55.766;37.570;2023-04-06T08:26:53;8.50;;;2.95;;
37791;SDS011;29527;55.766;37.570;2023-04-06T08:29:18;6.90;;;2.78;;
37791;SDS011;29527;55.766;37.570;2023-04-06T08:31:44;5.90;;;2.83;;
37791;SDS011;29527;55.766;37.570;2023-04-06T08:34:09;11.00;;;3.15;;
37791;SDS011;29527;55.766;37.570;2023-04-06T08:36:35;8.02;;;3.13;;
37791;SDS011;29527;55.766;37.570;2023-04-06T08:39:00;11.48;;;3.20;;
37791;SDS011;29527;55.766;37.570;2023-04-06T08:41:27;7.47;;;3.08;;
37791;SDS011;29527;55.766;37.570;2023-04-06T08:43:56;13.85;;;4.25;;
37791;SDS011;29527;55.766;37.570;2023-04-06T08:46:23;18.67;;;3.60;;
37791;SDS011;29527;55.766;37.570;2023-04-06T08:48:56;8.90;;;3.05;;
37791;SDS011;29527;55.766;37.570;2023-04-06T08:51:26;6.60;;;3.20;;
37791;SDS011;29527;55.766;37.570;2023-04-06T08:53:56;9.15;;;2.85;;
37791;SDS011;29527;55.766;37.570;2023-04-06T08:56:23;9.48;;;2.70;;
37791;SDS011;29527;55.766;37.570;2023-04-06T08:58:49;10.43;;;3.10;;
37791;SDS011;29527;55.766;37.570;2023-04-06T09:01:17;7.82;;;2.80;;
37791;SDS011;29527;55.766;37.570;2023-04-06T09:03:45;11.70;;;3.08;;
37791;SDS011;29527;55.766;37.570;2023-04-06T09:06:12;10.10;;;2.83;;
37791;SDS011;29527;55.766;37.570;2023-04-06T09:08:38;10.02;;;3.10;;
37791;SDS011;29527;55.766;37.570;2023-04-06T09:11:05;9.35;;;2.63;;
37791;SDS011;29527;55.766;37.570;2023-04-06T09:13:31;13.35;;;3.00;;
37791;SDS011;29527;55.766;37.570;2023-04-06T09:16:09;10.48;;;3.03;;
37791;SDS011;29527;55.766;37.570;2023-04-06T09:18:35;16.05;;;2.95;;
37791;SDS011;29527;55.766;37.570;2023-04-06T09:21:01;12.35;;;3.60;;
37791;SDS011;29527;55.766;37.570;2023-04-06T09:23:28;9.20;;;2.70;;
37791;SDS011;29527;55.766;37.570;2023-04-06T09:28:42;10.55;;;3.20;;
37791;SDS011;29527;55.766;37.570;2023-04-06T09:31:24;8.65;;;2.70;;
37791;SDS011;29527;55.766;37.570;2023-04-06T09:33:52;7.40;;;2.80;;
37791;SDS011;29527;55.766;37.570;2023-04-06T09:36:18;10.05;;;3.22;;
37791;SDS011;29527;55.766;37.570;2023-04-06T09:38:51;13.80;;;3.75;;
37791;SDS011;29527;55.766;37.570;2023-04-06T09:41:26;9.73;;;2.85;;
37791;SDS011;29527;55.766;37.570;2023-04-06T09:44:06;14.43;;;2.58;;
37791;SDS011;29527;55.766;37.570;2023-04-06T09:46:36;15.27;;;2.97;;
37791;SDS011;29527;55.766;37.570;2023-04-06T09:49:03;7.07;;;2.45;;
37791;SDS011;29527;55.766;37.570;2023-04-06T09:51:36;12.00;;;2.97;;
37791;SDS011;29527;55.766;37.570;2023-04-06T09:54:07;9.57;;;2.75;;
37791;SDS011;29527;55.766;37.570;2023-04-06T09:56:38;9.07;;;2.58;;
37791;SDS011;29527;55.766;37.570;2023-04-06T09:59:13;10.15;;;3.17;;
37791;SDS011;29527;55.766;37.570;2023-04-06T10:01:43;10.40;;;3.05;;
37791;SDS011;29527;55.766;37.570;2023-04-06T10:06:59;5.63;;;2.83;;
37791;SDS011;29527;55.766;37.570;2023-04-06T10:09:28;5.43;;;2.80;;
37791;SDS011;29527;55.766;37.570;2023-04-06T10:12:04;11.88;;;2.67;;
37791;SDS011;29527;55.766;37.570;2023-04-06T10:14:31;6.85;;;2.90;;
37791;SDS011;29527;55.766;37.570;2023-04-06T10:17:02;8.35;;;2.55;;
37791;SDS011;29527;55.766;37.570;2023-04-06T10:19:42;12.23;;;3.15;;
37791;SDS011;29527;55.766;37.570;2023-04-06T10:22:16;6.53;;;2.70;;
37791;SDS011;29527;55.766;37.570;2023-04-06T10:24:49;9.65;;;2.80;;
37791;SDS011;29527;55.766;37.570;2023-04-06T10:27:14;9.30;;;2.97;;
37791;SDS011;29527;55.766;37.570;2023-04-06T10:29:46;10.18;;;3.65;;
37791;SDS011;29527;55.766;37.570;2023-04-06T10:32:14;8.63;;;2.90;;
37791;SDS011;29527;55.766;37.570;2023-04-06T10:34:39;6.93;;;2.90;;
37791;SDS011;29527;55.766;37.570;2023-04-06T10:37:12;12.65;;;3.13;;
37791;SDS011;29527;55.766;37.570;2023-04-06T10:39:46;8.60;;;2.58;;
37791;SDS011;29527;55.766;37.570;2023-04-06T10:42:25;8.10;;;3.17;;
37791;SDS011;29527;55.766;37.570;2023-04-06T10:45:07;11.77;;;3.00;;
37791;SDS011;29527;55.766;37.570;2023-04-06T10:47:43;9.07;;;2.90;;
37791;SDS011;29527;55.766;37.570;2023-04-06T10:50:10;5.47;;;2.33;;
37791;SDS011;29527;55.766;37.570;2023-04-06T10:52:39;10.65;;;2.80;;
37791;SDS011;29527;55.766;37.570;2023-04-06T10:55:05;12.18;;;3.00;;
37791;SDS011;29527;55.766;37.570;2023-04-06T10:57:33;9.50;;;2.85;;
37791;SDS011;29527;55.766;37.570;2023-04-06T10:59:59;9.15;;;3.30;;
37791;SDS011;29527;55.766;37.570;2023-04-06T11:02:24;9.00;;;2.85;;
37791;SDS011;29527;55.766;37.570;2023-04-06T11:04:54;9.30;;;3.05;;
37791;SDS011;29527;55.766;37.570;2023-04-06T11:07:26;10.10;;;3.13;;
37791;SDS011;29527;55.766;37.570;2023-04-06T11:09:52;9.10;;;3.03;;
37791;SDS011;29527;55.766;37.570;2023-04-06T11:12:25;10.02;;;2.90;;
37791;SDS011;29527;55.766;37.570;2023-04-06T11:14:55;5.60;;;2.83;;
37791;SDS011;29527;55.766;37.570;2023-04-06T11:17:37;13.65;;;2.90;;
37791;SDS011;29527;55.766;37.570;2023-04-06T11:20:03;7.93;;;2.92;;
37791;SDS011;29527;55.766;37.570;2023-04-06T11:22:30;6.55;;;2.70;;
37791;SDS011;29527;55.766;37.570;2023-04-06T11:25:08;13.98;;;2.90;;
37791;SDS011;29527;55.766;37.570;2023-04-06T11:27:34;5.38;;;2.83;;
37791;SDS011;29527;55.766;37.570;2023-04-06T11:30:01;9.48;;;3.00;;
37791;SDS011;29527;55.766;37.570;2023-04-06T11:32:29;10.15;;;2.80;;
37791;SDS011;29527;55.766;37.570;2023-04-06T11:34:54;6.78;;;2.67;;
37791;SDS011;29527;55.766;37.570;2023-04-06T11:37:25;4.75;;;2.50;;
37791;SDS011;29527;55.766;37.570;2023-04-06T11:39:51;7.18;;;2.92;;
37791;SDS011;29527;55.766;37.570;2023-04-06T11:42:26;11.45;;;3.03;;
37791;SDS011;29527;55.766;37.570;2023-04-06T11:44:56;11.05;;;3.40;;
37791;SDS011;29527;55.766;37.570;2023-04-06T11:47:29;5.30;;;2.30;;
37791;SDS011;29527;55.766;37.570;2023-04-06T11:50:08;5.05;;;2.65;;
37791;SDS011;29527;55.766;37.570;2023-04-06T11:52:36;9.30;;;2.30;;
37791;SDS011;29527;55.766;37.570;2023-04-06T11:55:12;12.55;;;3.10;;
37791;SDS011;29527;55.766;37.570;2023-04-06T11:57:39;9.25;;;2.78;;
37791;SDS011;29527;55.766;37.570;2023-04-06T12:00:06;6.55;;;2.33;;
37791;SDS011;29527;55.766;37.570;2023-04-06T12:02:34;10.93;;;2.70;;
37791;SDS011;29527;55.766;37.570;2023-04-06T12:05:01;5.65;;;2.45;;
37791;SDS011;29527;55.766;37.570;2023-04-06T12:07:26;4.90;;;2.63;;
37791;SDS011;29527;55.766;37.570;2023-04-06T12:09:54;7.10;;;2.90;;
37791;SDS011;29527;55.766;37.570;2023-04-06T12:12:19;8.98;;;2.95;;
37791;SDS011;29527;55.766;37.570;2023-04-06T12:14:45;7.68;;;2.80;;
37791;SDS011;29527;55.766;37.570;2023-04-06T12:17:10;11.70;;;2.60;;
37791;SDS011;29527;55.766;37.570;2023-04-06T12:19:35;11.15;;;2.95;;
37791;SDS011;29527;55.766;37.570;2023-04-06T12:22:01;5.88;;;2.55;;
37791;SDS011;29527;55.766;37.570;2023-04-06T12:24:27;5.38;;;2.35;;
37791;SDS011;29527;55.766;37.570;2023-04-06T12:26:53;7.18;;;2.40;;
37791;SDS011;29527;55.766;37.570;2023-04-06T12:29:19;10.57;;;2.30;;
37791;SDS011;29527;55.766;37.570;2023-04-06T12:31:44;6.68;;;2.50;;
37791;SDS011;29527;55.766;37.570;2023-04-06T12:34:10;14.20;;;2.75;;
37791;SDS011;29527;55.766;37.570;2023-04-06T12:36:36;14.05;;;2.58;;
37791;SDS011;29527;55.766;37.570;2023-04-06T12:39:03;6.18;;;2.40;;
37791;SDS011;29527;55.766;37.570;2023-04-06T12:41:28;5.70;;;2.30;;
37791;SDS011;29527;55.766;37.570;2023-04-06T12:43:54;5.35;;;2.25;;
37791;SDS011;29527;55.766;37.570;2023-04-06T12:46:20;6.88;;;2.92;;
37791;SDS011;29527;55.766;37.570;2023-04-06T12:48:46;8.90;;;2.85;;
37791;SDS011;29527;55.766;37.570;2023-04-06T12:51:12;8.20;;;2.60;;
37791;SDS011;29527;55.766;37.570;2023-04-06T12:53:37;4.50;;;2.35;;
37791;SDS011;29527;55.766;37.570;2023-04-06T12:56:12;4.38;;;2.22;;
37791;SDS011;29527;55.766;37.570;2023-04-06T12:58:38;8.65;;;3.63;;
37791;SDS011;29527;55.766;37.570;2023-04-06T13:01:06;6.75;;;2.42;;
37791;SDS011;29527;55.766;37.570;2023-04-06T13:03:32;6.22;;;2.40;;
37791;SDS011;29527;55.766;37.570;2023-04-06T13:05:58;7.43;;;2.20;;
37791;SDS011;29527;55.766;37.570;2023-04-06T13:08:25;8.70;;;2.13;;
37791;SDS011;29527;55.766;37.570;2023-04-06T13:10:51;14.15;;;2.75;;
37791;SDS011;29527;55.766;37.570;2023-04-06T13:13:22;9.63;;;2.17;;
37791;SDS011;29527;55.766;37.570;2023-04-06T13:15:52;11.88;;;2.70;;
37791;SDS011;29527;55.766;37.570;2023-04-06T13:18:26;10.93;;;2.73;;
37791;SDS011;29527;55.766;37.570;2023-04-06T13:20:52;12.95;;;2.30;;
37791;SDS011;29527;55.766;37.570;2023-04-06T13:23:17;8.07;;;2.40;;
37791;SDS011;29527;55.766;37.570;2023-04-06T13:25:43;4.95;;;2.33;;
37791;SDS011;29527;55.766;37.570;2023-04-06T13:28:08;3.33;;;1.77;;
37791;SDS011;29527;55.766;37.570;2023-04-06T13:30:34;6.22;;;2.08;;
37791;SDS011;29527;55.766;37.570;2023-04-06T13:33:00;10.18;;;2.35;;
37791;SDS011;29527;55.766;37.570;2023-04-06T13:35:26;4.03;;;1.73;;
37791;SDS011;29527;55.766;37.570;2023-04-06T13:37:51;4.00;;;1.77;;
37791;SDS011;29527;55.766;37.570;2023-04-06T13:40:17;10.70;;;2.33;;
37791;SDS011;29527;55.766;37.570;2023-04-06T13:42:43;12.98;;;2.15;;
37791;SDS011;29527;55.766;37.570;2023-04-06T13:45:11;5.97;;;1.80;;
37791;SDS011;29527;55.766;37.570;2023-04-06T13:47:36;4.00;;;2.08;;
37791;SDS011;29527;55.766;37.570;2023-04-06T13:50:03;5.90;;;1.80;;
37791;SDS011;29527;55.766;37.570;2023-04-06T13:52:29;6.43;;;1.70;;
37791;SDS011;29527;55.766;37.570;2023-04-06T13:54:55;5.13;;;1.70;;
37791;SDS011;29527;55.766;37.570;2023-04-06T13:57:20;4.90;;;1.52;;
37791;SDS011;29527;55.766;37.570;2023-04-06T13:59:46;5.47;;;1.90;;
37791;SDS011;29527;55.766;37.570;2023-04-06T14:02:12;8.43;;;2.13;;
37791;SDS011;29527;55.766;37.570;2023-04-06T14:04:37;5.20;;;2.00;;
37791;SDS011;29527;55.766;37.570;2023-04-06T14:07:03;3.40;;;1.50;;
37791;SDS011;29527;55.766;37.570;2023-04-06T14:09:29;6.80;;;1.48;;
37791;SDS011;29527;55.766;37.570;2023-04-06T14:11:55;2.88;;;1.70;;
37791;SDS011;29527;55.766;37.570;2023-04-06T14:14:21;3.13;;;1.58;;
37791;SDS011;29527;55.766;37.570;2023-04-06T14:16:47;5.70;;;1.80;;
37791;SDS011;29527;55.766;37.570;2023-04-06T14:19:14;4.57;;;1.92;;
37791;SDS011;29527;55.766;37.570;2023-04-06T14:21:43;7.05;;;2.03;;
37791;SDS011;29527;55.766;37.570;2023-04-06T14:24:12;7.60;;;1.40;;
37791;SDS011;29527;55.766;37.570;2023-04-06T14:26:40;6.32;;;1.50;;
37791;SDS011;29527;55.766;37.570;2023-04-06T14:29:09;3.80;;;1.70;;
37791;SDS011;29527;55.766;37.570;2023-04-06T14:31:34;7.85;;;1.80;;